createdAt,value
2023-06-14T00:00:15.051Z,97166.53
2023-06-14T00:02:44.255Z,97166.25
2023-06-14T00:05:14.052Z,97166.56
2023-06-14T00:07:50.399Z,97179.28
2023-06-14T00:10:19.560Z,97192.50
2023-06-14T00:12:48.265Z,97201.81
2023-06-14T00:15:17.155Z,97190.94
2023-06-14T00:17:49.382Z,97187.31
2023-06-14T00:20:18.744Z,97189.28
2023-06-14T00:22:47.785Z,97190.78
2023-06-14T00:25:28.535Z,97191.75
2023-06-14T00:27:59.632Z,97182.25
2023-06-14T00:30:32.584Z,97184.44
2023-06-14T00:33:01.795Z,97181.94
2023-06-14T00:35:30.637Z,97190.63
2023-06-14T00:37:59.612Z,97182.41
2023-06-14T00:40:28.344Z,97196.44
2023-06-14T00:42:57.225Z,97204.59
2023-06-14T00:45:25.846Z,97203.25
2023-06-14T00:47:57.624Z,97204.91
2023-06-14T00:50:26.913Z,97217.72
2023-06-14T00:52:55.828Z,97229.13
2023-06-14T00:55:26.798Z,97246.19
2023-06-14T00:57:57.984Z,97260.66
2023-06-14T01:00:27.081Z,97284.03
2023-06-14T01:02:57.355Z,97292.97
2023-06-14T01:05:27.494Z,97308.22
2023-06-14T01:08:23.272Z,97317.16
2023-06-14T01:11:06.359Z,97304.88
2023-06-14T01:13:38.626Z,97300.03
2023-06-14T01:16:10.177Z,97293.75
2023-06-14T01:18:39.530Z,97300.44
2023-06-14T01:21:08.217Z,97295.69
2023-06-14T01:23:37.075Z,97293.91
2023-06-14T01:26:06.922Z,97296.25
2023-06-14T01:28:37.671Z,97292.31
2023-06-14T01:31:08.326Z,97290.81
2023-06-14T01:33:38.637Z,97288.81
2023-06-14T01:36:10.438Z,97292.63
2023-06-14T01:38:40.209Z,97287.44
2023-06-14T01:41:09.169Z,97288.88
2023-06-14T01:43:39.461Z,97274.59
2023-06-14T01:46:10.484Z,97279.19
2023-06-14T01:48:39.851Z,97287.81
2023-06-14T01:51:08.543Z,97297.81
2023-06-14T01:53:38.226Z,97303.78
2023-06-14T01:56:07.207Z,97303.00
2023-06-14T01:58:36.027Z,97295.94
2023-06-14T02:01:04.952Z,97299.25
2023-06-14T02:03:34.544Z,97292.78
2023-06-14T02:06:03.768Z,97289.91
2023-06-14T02:08:33.074Z,97292.25
2023-06-14T02:11:02.795Z,97290.91
2023-06-14T02:13:31.720Z,97291.09
2023-06-14T02:16:01.827Z,97290.03
2023-06-14T02:18:30.925Z,97285.47
2023-06-14T02:20:59.672Z,97285.69
2023-06-14T02:23:28.840Z,97284.19
2023-06-14T02:25:58.346Z,97286.31
2023-06-14T02:28:28.861Z,97304.09
2023-06-14T02:30:57.885Z,97306.22
2023-06-14T02:33:27.237Z,97312.25
2023-06-14T02:35:56.270Z,97317.53
2023-06-14T02:38:24.926Z,97320.22
2023-06-14T02:40:53.930Z,97324.38
2023-06-14T02:43:22.720Z,97316.91
2023-06-14T02:45:51.897Z,97314.31
2023-06-14T02:48:20.640Z,97311.81
2023-06-14T02:50:49.986Z,97318.13
2023-06-14T02:53:19.185Z,97319.56
2023-06-14T02:55:48.913Z,97319.56
2023-06-14T02:58:18.284Z,97329.38
2023-06-14T03:00:47.370Z,97330.72
2023-06-14T03:03:18.178Z,97326.41
2023-06-14T03:05:56.611Z,97328.56
2023-06-14T03:08:31.047Z,97326.91
2023-06-14T03:11:04.189Z,97335.25
2023-06-14T03:13:35.841Z,97334.59
2023-06-14T03:16:06.758Z,97339.22
2023-06-14T03:18:39.816Z,97348.19
2023-06-14T03:21:10.858Z,97370.63
2023-06-14T03:23:44.302Z,97366.59
2023-06-14T03:26:19.707Z,97361.97
2023-06-14T03:28:54.305Z,97372.75
2023-06-14T03:31:25.828Z,97350.00
2023-06-14T03:33:55.476Z,97364.13
2023-06-14T03:36:24.874Z,97364.44
2023-06-14T03:38:53.731Z,97367.44
2023-06-14T03:41:22.590Z,97360.09
2023-06-14T03:43:53.044Z,97355.94
2023-06-14T03:46:21.886Z,97354.41
2023-06-14T03:48:51.198Z,97362.00
2023-06-14T03:51:20.830Z,97362.19
2023-06-14T03:54:06.039Z,97364.59
2023-06-14T03:56:39.671Z,97371.69
2023-06-14T03:59:11.504Z,97377.38
2023-06-14T04:01:47.932Z,97377.75
2023-06-14T04:04:18.690Z,97385.78
2023-06-14T04:06:50.149Z,97392.34
2023-06-14T04:09:20.896Z,97392.22
2023-06-14T04:11:49.653Z,97395.63
2023-06-14T04:14:18.315Z,97392.69
2023-06-14T04:16:48.716Z,97398.63
2023-06-14T04:19:19.730Z,97388.56
2023-06-14T04:21:48.640Z,97393.84
2023-06-14T04:24:19.032Z,97389.16
2023-06-14T04:26:53.718Z,97390.25
2023-06-14T04:29:23.328Z,97374.63
2023-06-14T04:32:04.134Z,97376.19
2023-06-14T04:34:34.712Z,97382.19
2023-06-14T04:37:04.284Z,97375.41
2023-06-14T04:39:36.859Z,97370.13
2023-06-14T04:42:06.781Z,97378.19
2023-06-14T04:44:36.762Z,97375.88
2023-06-14T04:47:08.802Z,97388.47
2023-06-14T04:49:38.163Z,97381.44
2023-06-14T04:52:07.593Z,97380.00
2023-06-14T04:54:41.312Z,97376.94
2023-06-14T04:57:16.270Z,97383.25
2023-06-14T04:59:47.755Z,97376.50
2023-06-14T05:02:16.878Z,97372.44
2023-06-14T05:04:45.628Z,97368.88
2023-06-14T05:07:16.124Z,97364.19
2023-06-14T05:09:48.599Z,97367.75
2023-06-14T05:12:21.529Z,97370.06
2023-06-14T05:14:52.239Z,97357.84
2023-06-14T05:17:23.216Z,97362.19
2023-06-14T05:19:52.584Z,97365.94
2023-06-14T05:22:21.370Z,97358.78
2023-06-14T05:24:50.802Z,97355.72
2023-06-14T05:27:19.516Z,97359.09
2023-06-14T05:29:48.448Z,97351.75
2023-06-14T05:32:17.190Z,97346.13
2023-06-14T05:34:46.595Z,97348.88
2023-06-14T05:37:15.397Z,97348.22
2023-06-14T05:39:44.462Z,97346.38
2023-06-14T05:42:13.424Z,97349.06
2023-06-14T05:44:42.667Z,97345.00
2023-06-14T05:47:13.795Z,97347.25
2023-06-14T05:49:43.629Z,97342.72
2023-06-14T05:52:13.702Z,97335.09
2023-06-14T05:54:43.359Z,97330.53
2023-06-14T05:57:13.977Z,97332.75
2023-06-14T06:00:08.006Z,97326.53
2023-06-14T06:02:41.023Z,97318.28
2023-06-14T06:05:10.598Z,97327.00
2023-06-14T06:07:39.955Z,97333.56
2023-06-14T06:10:09.894Z,97321.47
2023-06-14T06:12:38.778Z,97319.34
2023-06-14T06:15:11.542Z,97321.50
2023-06-14T06:17:54.870Z,97310.44
2023-06-14T06:20:33.598Z,97323.88
2023-06-14T06:23:02.982Z,97316.88
2023-06-14T06:25:34.366Z,97309.44
2023-06-14T06:28:07.138Z,97307.34
2023-06-14T06:30:38.037Z,97310.53
2023-06-14T06:33:07.982Z,97314.59
2023-06-14T06:35:37.098Z,97298.41
2023-06-14T06:38:17.055Z,97313.06
2023-06-14T06:41:07.800Z,97308.31
2023-06-14T06:43:38.029Z,97305.63
2023-06-14T06:46:22.181Z,97305.59
2023-06-14T06:48:51.962Z,97313.53
2023-06-14T06:51:21.013Z,97306.69
2023-06-14T06:53:56.089Z,97293.19
2023-06-14T06:56:26.324Z,97303.94
2023-06-14T06:58:55.520Z,97309.25
2023-06-14T07:01:26.392Z,97302.06
2023-06-14T07:03:55.623Z,97300.09
2023-06-14T07:06:26.650Z,97297.28
2023-06-14T07:09:03.353Z,97290.88
2023-06-14T07:11:34.682Z,97288.19
2023-06-14T07:14:03.927Z,97284.22
2023-06-14T07:16:32.992Z,97279.44
2023-06-14T07:19:04.249Z,97279.16
2023-06-14T07:21:33.816Z,97285.34
2023-06-14T07:24:02.594Z,97281.78
2023-06-14T07:26:31.905Z,97284.84
2023-06-14T07:29:00.601Z,97278.06
2023-06-14T07:31:33.516Z,97273.44
2023-06-14T07:34:04.167Z,97275.41
2023-06-14T07:36:33.220Z,97274.31
2023-06-14T07:39:05.495Z,97271.91
2023-06-14T07:41:35.556Z,97268.13
2023-06-14T07:44:05.686Z,97276.44
2023-06-14T07:46:36.705Z,97266.47
2023-06-14T07:49:09.233Z,97264.53
2023-06-14T07:51:38.446Z,97253.09
2023-06-14T07:54:09.195Z,97257.03
2023-06-14T07:56:38.400Z,97260.56
2023-06-14T07:59:08.736Z,97246.91
2023-06-14T08:01:38.117Z,97249.31
2023-06-14T08:04:07.113Z,97244.38
2023-06-14T08:06:36.153Z,97236.88
2023-06-14T08:09:04.944Z,97240.59
2023-06-14T08:11:35.556Z,97234.34
2023-06-14T08:14:05.817Z,97231.31
2023-06-14T08:16:35.063Z,97226.19
2023-06-14T08:19:04.707Z,97229.84
2023-06-14T08:21:35.420Z,97234.94
2023-06-14T08:24:05.843Z,97220.47
2023-06-14T08:26:35.261Z,97225.81
2023-06-14T08:29:11.457Z,97219.09
2023-06-14T08:31:40.613Z,97208.84
2023-06-14T08:34:09.686Z,97211.50
2023-06-14T08:36:38.957Z,97203.78
2023-06-14T08:39:08.100Z,97204.78
2023-06-14T08:41:38.344Z,97206.06
2023-06-14T08:44:09.479Z,97198.88
2023-06-14T08:46:39.509Z,97198.63
2023-06-14T08:49:10.757Z,97199.56
2023-06-14T08:51:42.530Z,97192.91
2023-06-14T08:54:12.648Z,97184.88
2023-06-14T08:56:43.542Z,97188.03
2023-06-14T08:59:13.593Z,97190.38
2023-06-14T09:01:49.295Z,97184.44
2023-06-14T09:04:31.606Z,97184.94
2023-06-14T09:07:01.167Z,97181.09
2023-06-14T09:09:29.863Z,97173.06
2023-06-14T09:12:08.590Z,97172.88
2023-06-14T09:14:40.383Z,97171.66
2023-06-14T09:17:09.476Z,97171.22
2023-06-14T09:19:38.312Z,97164.81
2023-06-14T09:22:09.742Z,97157.53
2023-06-14T09:24:39.749Z,97158.44
2023-06-14T09:27:08.621Z,97158.53
2023-06-14T09:29:38.895Z,97154.00
2023-06-14T09:32:08.605Z,97155.09
2023-06-14T09:34:38.220Z,97144.88
2023-06-14T09:37:07.532Z,97146.09
2023-06-14T09:39:37.778Z,97139.06
2023-06-14T09:42:22.705Z,97146.66
2023-06-14T09:44:54.118Z,97131.06
2023-06-14T09:47:25.976Z,97135.22
2023-06-14T09:49:57.240Z,97127.16
2023-06-14T09:52:28.885Z,97128.06
2023-06-14T09:54:58.260Z,97129.38
2023-06-14T09:57:31.304Z,97118.13
2023-06-14T10:00:04.339Z,97119.81
2023-06-14T10:02:44.787Z,97115.47
2023-06-14T10:05:18.518Z,97109.22
2023-06-14T10:08:17.753Z,97106.44
2023-06-14T10:10:47.990Z,97112.09
2023-06-14T10:13:18.770Z,97107.09
2023-06-14T10:16:02.760Z,97112.41
2023-06-14T10:18:46.397Z,97105.34
2023-06-14T10:21:57.886Z,97106.81
2023-06-14T10:24:47.234Z,97103.78
2023-06-14T10:27:33.375Z,97103.97
2023-06-14T10:30:12.536Z,97111.97
2023-06-14T10:33:12.906Z,97098.88
2023-06-14T10:35:42.657Z,97105.16
2023-06-14T10:38:18.414Z,97101.44
2023-06-14T10:40:56.702Z,97093.44
2023-06-14T10:43:26.572Z,97091.00
2023-06-14T10:46:25.226Z,97099.22
2023-06-14T10:49:01.161Z,97090.59
2023-06-14T10:51:47.174Z,97087.66
2023-06-14T10:54:16.349Z,97069.59
2023-06-14T10:56:51.991Z,97074.91
2023-06-14T10:59:22.371Z,97063.03
2023-06-14T11:02:00.300Z,97066.16
2023-06-14T11:04:48.928Z,97061.50
2023-06-14T11:07:48.918Z,97062.88
2023-06-14T11:10:39.724Z,97045.47
2023-06-14T11:13:14.877Z,97047.78
2023-06-14T11:16:00.392Z,97040.25
2023-06-14T11:18:31.271Z,97040.19
2023-06-14T11:21:00.310Z,97034.09
2023-06-14T11:23:29.061Z,97029.16
2023-06-14T11:25:59.872Z,97031.44
2023-06-14T11:28:39.907Z,97028.09
2023-06-14T11:31:12.207Z,97022.38
2023-06-14T11:33:41.551Z,97014.38
2023-06-14T11:36:10.759Z,97013.56
2023-06-14T11:38:39.947Z,97012.94
2023-06-14T11:41:09.184Z,97017.88
2023-06-14T11:43:39.409Z,97007.84
2023-06-14T11:46:17.287Z,97004.28
2023-06-14T11:48:47.372Z,97008.78
2023-06-14T11:51:35.139Z,96988.22
2023-06-14T11:54:06.003Z,96977.66
2023-06-14T11:56:34.821Z,96968.81
2023-06-14T11:59:07.685Z,96976.84
2023-06-14T12:01:43.220Z,96977.03
2023-06-14T12:04:17.046Z,96984.25
2023-06-14T12:06:45.959Z,96983.66
2023-06-14T12:09:19.479Z,96983.28
2023-06-14T12:11:48.452Z,96987.41
2023-06-14T12:14:17.426Z,96993.16
2023-06-14T12:16:46.654Z,96992.34
2023-06-14T12:19:17.540Z,96992.16
2023-06-14T12:21:53.074Z,97011.47
2023-06-14T12:24:22.046Z,97017.00
2023-06-14T12:26:50.675Z,97021.97
2023-06-14T12:29:21.763Z,97017.44
2023-06-14T12:31:50.512Z,97017.06
2023-06-14T12:34:19.259Z,97016.28
2023-06-14T12:36:48.559Z,97016.28
2023-06-14T12:39:17.237Z,97015.44
2023-06-14T12:41:46.094Z,97018.31
2023-06-14T12:44:15.609Z,97020.16
2023-06-14T12:46:45.726Z,97028.81
2023-06-14T12:49:15.745Z,97035.38
2023-06-14T12:51:44.409Z,97038.47
2023-06-14T12:54:15.850Z,97043.03
2023-06-14T12:56:47.659Z,97044.47
2023-06-14T12:59:16.311Z,97047.56
2023-06-14T13:01:46.936Z,97045.47
2023-06-14T13:04:16.022Z,97049.59
2023-06-14T13:06:44.689Z,97055.78
2023-06-14T13:09:14.841Z,97046.88
2023-06-14T13:11:47.847Z,97054.94
2023-06-14T13:14:25.552Z,97063.63
2023-06-14T13:16:55.358Z,97054.34
2023-06-14T13:19:24.249Z,97068.56
2023-06-14T13:21:53.041Z,97067.88
2023-06-14T13:24:21.767Z,97070.38
2023-06-14T13:26:50.625Z,97067.13
2023-06-14T13:29:19.254Z,97073.84
2023-06-14T13:31:48.564Z,97072.19
2023-06-14T13:34:17.228Z,97070.53
2023-06-14T13:36:46.078Z,97071.34
2023-06-14T13:39:14.687Z,97073.84
2023-06-14T13:41:43.466Z,97083.91
2023-06-14T13:44:17.178Z,97081.44
2023-06-14T13:46:47.129Z,97083.28
2023-06-14T13:49:15.746Z,97075.47
2023-06-14T13:51:45.548Z,97078.28
2023-06-14T13:54:17.528Z,97070.09
2023-06-14T13:56:46.673Z,97070.81
2023-06-14T13:59:15.593Z,97081.59
2023-06-14T14:01:44.383Z,97097.13
2023-06-14T14:04:13.530Z,97125.16
2023-06-14T14:06:42.330Z,97128.56
2023-06-14T14:09:11.584Z,97133.84
2023-06-14T14:11:41.865Z,97145.75
2023-06-14T14:14:11.974Z,97176.69
2023-06-14T14:16:40.611Z,97191.69
2023-06-14T14:19:09.717Z,97215.78
2023-06-14T14:21:38.370Z,97234.13
2023-06-14T14:24:07.703Z,97253.97
2023-06-14T14:26:36.431Z,97281.63
2023-06-14T14:29:05.258Z,97279.13
2023-06-14T14:31:34.246Z,97290.09
2023-06-14T14:34:03.131Z,97283.66
2023-06-14T14:36:31.744Z,97261.72
2023-06-14T14:39:00.558Z,97245.38
2023-06-14T14:41:30.356Z,97245.56
2023-06-14T14:44:00.503Z,97238.44
2023-06-14T14:46:30.459Z,97233.47
2023-06-14T14:48:59.179Z,97246.78
2023-06-14T14:51:28.099Z,97239.91
2023-06-14T14:53:56.856Z,97237.59
2023-06-14T14:56:25.887Z,97230.97
2023-06-14T14:58:54.853Z,97232.47
2023-06-14T15:01:23.787Z,97228.66
2023-06-14T15:03:59.169Z,97227.16
2023-06-14T15:06:28.904Z,97240.38
2023-06-14T15:08:57.907Z,97254.31
2023-06-14T15:11:27.672Z,97246.03
2023-06-14T15:13:56.892Z,97264.03
2023-06-14T15:16:26.032Z,97277.38
2023-06-14T15:18:57.612Z,97280.50
2023-06-14T15:21:26.585Z,97294.75
2023-06-14T15:23:55.225Z,97301.84
2023-06-14T15:26:27.596Z,97304.19
2023-06-14T15:28:56.449Z,97311.00
2023-06-14T15:31:29.963Z,97313.16
2023-06-14T15:33:58.961Z,97324.38
2023-06-14T15:36:27.755Z,97323.66
2023-06-14T15:38:56.786Z,97324.41
2023-06-14T15:41:25.417Z,97310.41
2023-06-14T15:43:54.230Z,97321.06
2023-06-14T15:46:24.760Z,97328.50
2023-06-14T15:48:53.604Z,97339.09
2023-06-14T15:51:22.929Z,97345.19
2023-06-14T15:53:51.947Z,97359.66
2023-06-14T15:56:20.655Z,97362.78
2023-06-14T15:58:52.590Z,97371.91
2023-06-14T16:01:21.325Z,97372.91
2023-06-14T16:03:50.080Z,97379.41
2023-06-14T16:06:18.975Z,97361.47
2023-06-14T16:08:47.881Z,97364.03
2023-06-14T16:11:17.124Z,97355.28
2023-06-14T16:13:45.824Z,97347.00
2023-06-14T16:16:15.301Z,97347.31
2023-06-14T16:18:44.181Z,97327.28
2023-06-14T16:21:13.679Z,97328.34
2023-06-14T16:23:42.741Z,97322.59
2023-06-14T16:26:14.546Z,97323.75
2023-06-14T16:28:46.661Z,97333.91
2023-06-14T16:31:23.990Z,97336.34
2023-06-14T16:33:56.346Z,97359.38
2023-06-14T16:36:25.238Z,97368.47
2023-06-14T16:38:53.897Z,97367.59
2023-06-14T16:41:22.718Z,97372.72
2023-06-14T16:43:51.352Z,97360.97
2023-06-14T16:46:31.961Z,97356.56
2023-06-14T16:49:02.454Z,97365.81
2023-06-14T16:51:31.271Z,97359.50
2023-06-14T16:54:00.257Z,97348.84
2023-06-14T16:56:29.574Z,97342.38
2023-06-14T16:58:59.686Z,97329.19
2023-06-14T17:01:28.880Z,97325.97
2023-06-14T17:03:57.624Z,97318.88
2023-06-14T17:06:26.601Z,97321.28
2023-06-14T17:08:55.250Z,97314.00
2023-06-14T17:11:24.605Z,97316.78
2023-06-14T17:13:53.910Z,97318.59
2023-06-14T17:16:23.237Z,97325.97
2023-06-14T17:18:52.848Z,97334.78
2023-06-14T17:21:21.604Z,97334.56
2023-06-14T17:23:50.238Z,97341.88
2023-06-14T17:26:19.271Z,97332.03
2023-06-14T17:28:47.906Z,97333.31
2023-06-14T17:31:17.057Z,97338.72
2023-06-14T17:33:45.840Z,97342.50
2023-06-14T17:36:14.700Z,97344.19
2023-06-14T17:38:43.401Z,97343.09
2023-06-14T17:41:12.259Z,97352.72
2023-06-14T17:43:40.980Z,97343.19
2023-06-14T17:46:10.185Z,97356.13
2023-06-14T17:48:38.836Z,97350.91
2023-06-14T17:51:08.594Z,97369.97
2023-06-14T17:53:37.312Z,97369.69
2023-06-14T17:56:06.443Z,97388.09
2023-06-14T17:58:35.542Z,97380.19
2023-06-14T18:01:04.664Z,97370.97
2023-06-14T18:03:33.460Z,97373.31
2023-06-14T18:06:02.694Z,97368.50
2023-06-14T18:08:31.487Z,97369.19
2023-06-14T18:11:00.230Z,97361.16
2023-06-14T18:13:28.893Z,97363.59
2023-06-14T18:15:57.811Z,97361.56
2023-06-14T18:18:26.529Z,97340.41
2023-06-14T18:20:55.346Z,97318.84
2023-06-14T18:23:23.977Z,97298.53
2023-06-14T18:25:52.830Z,97295.78
2023-06-14T18:28:21.656Z,97293.59
2023-06-14T18:30:50.767Z,97295.56
2023-06-14T18:33:19.343Z,97285.72
2023-06-14T18:35:48.103Z,97271.41
2023-06-14T18:38:16.953Z,97275.59
2023-06-14T18:40:45.877Z,97260.84
2023-06-14T18:43:14.431Z,97255.56
2023-06-14T18:45:43.268Z,97261.25
2023-06-14T18:48:13.931Z,97249.97
2023-06-14T18:50:42.808Z,97271.63
2023-06-14T18:53:13.904Z,97265.16
2023-06-14T18:55:45.592Z,97258.50
2023-06-14T18:58:14.753Z,97266.28
2023-06-14T19:00:43.416Z,97262.28
2023-06-14T19:03:12.501Z,97267.06
2023-06-14T19:05:41.821Z,97255.16
2023-06-14T19:08:14.089Z,97244.59
2023-06-14T19:10:42.870Z,97245.34
2023-06-14T19:13:12.966Z,97249.88
2023-06-14T19:15:41.952Z,97250.38
2023-06-14T19:18:12.787Z,97249.41
2023-06-14T19:20:41.691Z,97250.81
2023-06-14T19:23:10.362Z,97235.16
2023-06-14T19:25:39.329Z,97237.97
2023-06-14T19:28:08.091Z,97236.59
2023-06-14T19:30:38.052Z,97225.59
2023-06-14T19:33:06.880Z,97219.91
2023-06-14T19:35:35.719Z,97220.03
2023-06-14T19:38:04.551Z,97214.06
2023-06-14T19:40:34.056Z,97203.47
2023-06-14T19:43:02.643Z,97196.72
2023-06-14T19:45:33.872Z,97184.56
2023-06-14T19:48:11.333Z,97185.50
2023-06-14T19:50:48.448Z,97191.16
2023-06-14T19:53:17.681Z,97178.41
2023-06-14T19:55:46.846Z,97172.91
2023-06-14T19:58:15.564Z,97167.38
2023-06-14T20:00:44.532Z,97148.66
2023-06-14T20:03:14.593Z,97147.44
2023-06-14T20:05:47.491Z,97152.72
2023-06-14T20:08:22.853Z,97146.53
2023-06-14T20:10:55.161Z,97142.31
2023-06-14T20:13:25.217Z,97143.63
2023-06-14T20:15:57.909Z,97143.81
2023-06-14T20:18:28.415Z,97143.94
2023-06-14T20:20:58.735Z,97131.34
2023-06-14T20:23:28.946Z,97115.69
2023-06-14T20:25:58.863Z,97104.41
2023-06-14T20:28:28.509Z,97104.94
2023-06-14T20:30:59.113Z,97145.81
2023-06-14T20:33:29.830Z,97192.72
2023-06-14T20:35:59.639Z,97200.34
2023-06-14T20:38:29.809Z,97215.41
2023-06-14T20:40:59.885Z,97287.88
2023-06-14T20:43:30.575Z,97308.72
2023-06-14T20:46:00.419Z,97323.44
2023-06-14T20:48:31.620Z,97369.09
2023-06-14T20:51:01.955Z,97380.19
2023-06-14T20:53:32.690Z,97404.81
2023-06-14T20:56:03.040Z,97418.47
2023-06-14T20:58:33.222Z,97427.78
2023-06-14T21:01:03.999Z,97489.75
2023-06-14T21:03:34.724Z,97499.75
2023-06-14T21:06:07.890Z,97517.13
2023-06-14T21:08:38.978Z,97521.50
2023-06-14T21:11:09.704Z,97537.75
2023-06-14T21:13:39.616Z,97534.03
2023-06-14T21:16:09.262Z,97521.56
2023-06-14T21:18:39.451Z,97543.38
2023-06-14T21:21:09.317Z,97558.47
2023-06-14T21:23:39.325Z,97573.84
2023-06-14T21:26:09.461Z,97563.91
2023-06-14T21:28:40.188Z,97574.63
2023-06-14T21:31:11.284Z,97579.66
2023-06-14T21:33:41.078Z,97588.31
2023-06-14T21:36:13.465Z,97596.19
2023-06-14T21:38:43.830Z,97592.19
2023-06-14T21:41:14.625Z,97578.44
2023-06-14T21:43:44.919Z,97578.34
2023-06-14T21:46:15.090Z,97582.31
2023-06-14T21:48:45.080Z,97594.16
2023-06-14T21:51:14.960Z,97602.72
2023-06-14T21:53:49.873Z,97606.47
2023-06-14T21:56:20.998Z,97615.78
2023-06-14T21:58:51.418Z,97626.97
2023-06-14T22:01:21.340Z,97639.22
2023-06-14T22:03:51.574Z,97654.19
2023-06-14T22:06:21.859Z,97641.47
2023-06-14T22:08:52.140Z,97605.50
2023-06-14T22:11:23.430Z,97561.91
2023-06-14T22:13:54.414Z,97529.00
2023-06-14T22:16:27.702Z,97481.72
2023-06-14T22:19:00.493Z,97449.69
2023-06-14T22:21:31.311Z,97430.34
2023-06-14T22:24:02.827Z,97417.00
2023-06-14T22:26:40.331Z,97395.31
2023-06-14T22:29:09.997Z,97376.50
2023-06-14T22:31:38.746Z,97361.44
2023-06-14T22:34:09.394Z,97363.09
2023-06-14T22:36:39.648Z,97363.31
2023-06-14T22:39:10.170Z,97382.94
2023-06-14T22:41:39.530Z,97402.44
2023-06-14T22:44:08.547Z,97408.09
2023-06-14T22:46:37.865Z,97410.78
2023-06-14T22:49:07.961Z,97418.47
2023-06-14T22:51:37.862Z,97422.22
2023-06-14T22:54:07.667Z,97435.97
2023-06-14T22:56:36.897Z,97457.09
2023-06-14T22:59:05.789Z,97494.81
2023-06-14T23:01:34.925Z,97549.13
2023-06-14T23:04:04.498Z,97641.31
2023-06-14T23:06:35.498Z,97726.84
2023-06-14T23:09:06.390Z,97775.44
2023-06-14T23:11:35.308Z,97804.25
2023-06-14T23:14:04.021Z,97782.00
2023-06-14T23:16:33.300Z,97735.50
2023-06-14T23:19:02.000Z,97736.25
2023-06-14T23:21:31.764Z,97694.38
2023-06-14T23:24:00.639Z,97628.88
2023-06-14T23:26:30.059Z,97590.44
2023-06-14T23:28:59.069Z,97597.34
2023-06-14T23:31:28.161Z,97626.94
2023-06-14T23:33:57.380Z,97638.56
2023-06-14T23:36:32.480Z,97634.50
2023-06-14T23:39:05.254Z,97640.63
2023-06-14T23:41:34.388Z,97627.22
2023-06-14T23:44:03.309Z,97618.03
2023-06-14T23:46:33.076Z,97599.09
2023-06-14T23:49:03.000Z,97630.16
2023-06-14T23:51:32.708Z,97642.44
2023-06-14T23:54:01.942Z,97650.88
2023-06-14T23:56:33.635Z,97639.56
2023-06-14T23:59:02.718Z,97624.75
